createdAt,value
2022-12-18T00:01:34.458Z,2.88
2022-12-18T00:04:08.734Z,1.72
2022-12-18T00:06:36.187Z,0.68
2022-12-18T00:09:03.490Z,-0.00
2022-12-18T00:11:31.329Z,-0.08
2022-12-18T00:13:59.429Z,1.80
2022-12-18T00:16:27.555Z,2.37
2022-12-18T00:18:58.767Z,1.26
2022-12-18T00:21:25.962Z,0.34
2022-12-18T00:23:52.869Z,-0.31
2022-12-18T00:26:22.793Z,0.32
2022-12-18T00:28:49.930Z,2.28
2022-12-18T00:31:20.523Z,2.06
2022-12-18T00:33:47.290Z,0.90
2022-12-18T00:36:19.396Z,0.06
2022-12-18T00:38:46.966Z,-0.50
2022-12-18T00:41:35.548Z,0.64
2022-12-18T00:44:03.330Z,2.17
2022-12-18T00:46:30.170Z,1.21
2022-12-18T00:48:56.672Z,0.17
2022-12-18T00:51:23.560Z,-0.53
2022-12-18T00:53:49.977Z,-0.65
2022-12-18T00:56:16.435Z,1.18
2022-12-18T00:58:42.815Z,2.25
2022-12-18T01:01:09.261Z,1.20
2022-12-18T01:03:36.030Z,0.16
2022-12-18T01:06:08.226Z,-0.57
2022-12-18T01:08:35.686Z,-0.98
2022-12-18T01:11:10.140Z,0.47
2022-12-18T01:13:36.945Z,2.26
2022-12-18T01:16:03.903Z,1.58
2022-12-18T01:18:30.388Z,0.40
2022-12-18T01:20:57.137Z,-0.38
2022-12-18T01:23:23.528Z,-0.93
2022-12-18T01:25:49.984Z,-0.03
2022-12-18T01:28:16.477Z,1.86
2022-12-18T01:30:42.816Z,1.46
2022-12-18T01:33:09.184Z,0.35
2022-12-18T01:35:42.182Z,-0.48
2022-12-18T01:38:08.521Z,-1.09
2022-12-18T01:40:35.595Z,-0.68
2022-12-18T01:43:02.002Z,1.34
2022-12-18T01:45:31.600Z,1.68
2022-12-18T01:48:05.813Z,0.51
2022-12-18T01:50:38.682Z,-0.44
2022-12-18T01:53:15.801Z,-0.94
2022-12-18T01:55:54.344Z,0.67
2022-12-18T01:58:29.342Z,1.77
2022-12-18T02:00:56.376Z,0.66
2022-12-18T02:03:22.915Z,-0.31
2022-12-18T02:06:21.356Z,-0.98
2022-12-18T02:09:19.228Z,0.11
2022-12-18T02:12:16.604Z,2.09
2022-12-18T02:14:51.812Z,0.98
2022-12-18T02:17:31.508Z,-0.11
2022-12-18T02:20:18.286Z,-0.87
2022-12-18T02:22:47.729Z,-0.00
2022-12-18T02:25:23.000Z,2.00
2022-12-18T02:27:51.317Z,1.89
2022-12-18T02:30:18.585Z,0.66
2022-12-18T02:32:50.644Z,-0.27
2022-12-18T02:35:22.650Z,-0.85
2022-12-18T02:37:49.169Z,0.42
2022-12-18T02:40:17.292Z,2.06
2022-12-18T02:42:43.750Z,1.36
2022-12-18T02:45:10.667Z,0.27
2022-12-18T02:47:40.084Z,-0.54
2022-12-18T02:50:17.489Z,-0.77
2022-12-18T02:53:33.205Z,1.26
2022-12-18T02:56:06.361Z,2.33
2022-12-18T02:59:02.907Z,1.03
2022-12-18T03:01:50.652Z,-0.13
2022-12-18T03:04:26.965Z,-0.84
2022-12-18T03:07:00.472Z,0.06
2022-12-18T03:09:40.152Z,2.25
2022-12-18T03:12:28.650Z,1.96
2022-12-18T03:15:23.267Z,0.60
2022-12-18T03:17:56.747Z,-0.39
2022-12-18T03:20:24.081Z,-0.89
2022-12-18T03:22:56.163Z,0.57
2022-12-18T03:25:22.914Z,2.44
2022-12-18T03:27:53.615Z,1.66
2022-12-18T03:30:20.136Z,0.47
2022-12-18T03:32:52.377Z,-0.36
2022-12-18T03:35:29.980Z,-0.59
2022-12-18T03:37:56.357Z,1.43
2022-12-18T03:40:29.444Z,2.71
2022-12-18T03:43:03.880Z,1.57
2022-12-18T03:45:37.850Z,0.41
2022-12-18T03:48:26.087Z,-0.39
2022-12-18T03:51:17.429Z,-0.85
2022-12-18T03:53:52.118Z,1.15
2022-12-18T03:56:18.958Z,2.49
2022-12-18T03:58:46.368Z,1.36
2022-12-18T04:01:15.485Z,0.26
2022-12-18T04:03:43.254Z,-0.51
2022-12-18T04:06:10.635Z,-0.30
2022-12-18T04:08:37.350Z,1.79
2022-12-18T04:11:04.027Z,2.19
2022-12-18T04:13:38.597Z,0.97
2022-12-18T04:16:06.006Z,-0.04
2022-12-18T04:18:32.705Z,-0.54
2022-12-18T04:20:58.985Z,1.08
2022-12-18T04:23:25.348Z,2.64
2022-12-18T04:25:51.766Z,1.71
2022-12-18T04:28:18.233Z,0.56
2022-12-18T04:30:44.617Z,-0.24
2022-12-18T04:33:12.716Z,-0.28
2022-12-18T04:35:42.455Z,1.78
2022-12-18T04:38:10.193Z,2.96
2022-12-18T04:40:37.732Z,1.80
2022-12-18T04:43:04.703Z,0.66
2022-12-18T04:45:32.462Z,-0.12
2022-12-18T04:48:00.411Z,-0.47
2022-12-18T04:50:27.442Z,1.20
2022-12-18T04:52:53.977Z,2.56
2022-12-18T04:55:20.487Z,1.57
2022-12-18T04:57:46.831Z,0.48
2022-12-18T05:00:13.936Z,-0.29
2022-12-18T05:02:40.478Z,-0.85
2022-12-18T05:05:07.923Z,0.10
2022-12-18T05:07:34.364Z,2.00
2022-12-18T05:10:00.832Z,1.49
2022-12-18T05:12:27.245Z,0.37
2022-12-18T05:14:53.574Z,-0.43
2022-12-18T05:17:19.977Z,-0.96
2022-12-18T05:19:46.423Z,0.19
2022-12-18T05:22:12.836Z,2.12
2022-12-18T05:24:39.243Z,1.92
2022-12-18T05:27:05.621Z,0.72
2022-12-18T05:29:32.001Z,-0.20
2022-12-18T05:31:58.376Z,-0.83
2022-12-18T05:34:24.816Z,-0.86
2022-12-18T05:36:51.303Z,1.18
2022-12-18T05:39:17.737Z,2.43
2022-12-18T05:41:44.053Z,1.37
2022-12-18T05:44:10.616Z,0.25
2022-12-18T05:46:37.081Z,-0.54
2022-12-18T05:49:03.664Z,-1.05
2022-12-18T05:51:30.004Z,0.31
2022-12-18T05:53:56.461Z,2.29
2022-12-18T05:56:23.168Z,1.75
2022-12-18T05:58:53.465Z,0.52
2022-12-18T06:01:24.718Z,-0.37
2022-12-18T06:03:51.385Z,-0.96
2022-12-18T06:06:28.800Z,0.24
2022-12-18T06:08:56.206Z,2.31
2022-12-18T06:11:25.351Z,1.62
2022-12-18T06:13:58.147Z,0.45
2022-12-18T06:16:24.984Z,-0.44
2022-12-18T06:18:51.615Z,-1.02
2022-12-18T06:21:18.247Z,-0.10
2022-12-18T06:23:44.733Z,2.07
2022-12-18T06:26:12.828Z,1.95
2022-12-18T06:28:39.395Z,0.70
2022-12-18T06:31:07.130Z,-0.21
2022-12-18T06:33:34.900Z,-0.79
2022-12-18T06:36:04.589Z,0.46
2022-12-18T06:38:33.268Z,2.26
2022-12-18T06:40:59.632Z,1.49
2022-12-18T06:43:26.497Z,0.36
2022-12-18T06:46:00.773Z,-0.42
2022-12-18T06:48:27.674Z,-0.96
2022-12-18T06:50:54.295Z,0.30
2022-12-18T06:53:20.718Z,2.26
2022-12-18T06:55:47.315Z,1.58
2022-12-18T06:58:13.918Z,0.40
2022-12-18T07:00:40.764Z,-0.42
2022-12-18T07:03:07.295Z,-0.32
2022-12-18T07:05:33.899Z,1.93
2022-12-18T07:08:00.657Z,3.15
2022-12-18T07:10:27.059Z,1.99
2022-12-18T07:12:53.490Z,0.83
2022-12-18T07:15:19.870Z,0.06
2022-12-18T07:17:46.256Z,-0.29
2022-12-18T07:20:12.646Z,1.51
2022-12-18T07:22:39.043Z,3.05
2022-12-18T07:25:06.650Z,2.09
2022-12-18T07:27:33.123Z,0.97
2022-12-18T07:29:59.426Z,0.21
2022-12-18T07:32:25.737Z,-0.12
2022-12-18T07:34:52.078Z,1.65
2022-12-18T07:37:18.499Z,3.18
2022-12-18T07:39:44.999Z,2.27
2022-12-18T07:42:30.478Z,1.17
2022-12-18T07:44:58.115Z,0.36
2022-12-18T07:47:25.000Z,0.17
2022-12-18T07:49:51.676Z,2.06
2022-12-18T07:52:22.848Z,3.44
2022-12-18T07:54:52.316Z,2.41
2022-12-18T07:57:48.452Z,1.33
2022-12-18T08:00:06.365Z,0.53
2022-12-18T08:02:32.887Z,0.41
2022-12-18T08:04:59.489Z,2.32
2022-12-18T08:07:25.914Z,3.60
2022-12-18T08:09:52.307Z,2.59
2022-12-18T08:12:18.739Z,1.50
2022-12-18T08:14:45.132Z,0.76
2022-12-18T08:17:11.535Z,0.28
2022-12-18T08:19:37.945Z,1.48
2022-12-18T08:22:04.348Z,3.55
2022-12-18T08:24:31.146Z,3.41
2022-12-18T08:27:27.974Z,2.22
2022-12-18T08:29:43.975Z,1.23
2022-12-18T08:32:10.793Z,0.61
2022-12-18T08:34:37.335Z,0.71
2022-12-18T08:37:04.051Z,2.85
2022-12-18T08:39:30.613Z,3.72
2022-12-18T08:42:15.653Z,2.59
2022-12-18T08:44:42.235Z,1.51
2022-12-18T08:47:08.693Z,0.83
2022-12-18T08:49:35.621Z,0.68
2022-12-18T08:52:03.105Z,2.50
2022-12-18T08:54:29.773Z,3.82
2022-12-18T08:56:56.257Z,2.85
2022-12-18T08:59:23.507Z,1.77
2022-12-18T09:01:50.265Z,1.02
2022-12-18T09:04:17.257Z,0.52
2022-12-18T09:06:43.838Z,1.55
2022-12-18T09:09:10.536Z,3.65
2022-12-18T09:11:37.210Z,3.41
2022-12-18T09:14:03.659Z,2.27
2022-12-18T09:16:32.939Z,1.40
2022-12-18T09:19:00.017Z,0.80
2022-12-18T09:21:31.584Z,0.85
2022-12-18T09:23:59.513Z,2.82
2022-12-18T09:26:26.844Z,3.12
2022-12-18T09:28:53.679Z,2.07
2022-12-18T09:31:22.655Z,1.25
2022-12-18T09:33:49.221Z,0.78
2022-12-18T09:36:18.089Z,2.33
2022-12-18T09:38:44.700Z,4.06
2022-12-18T09:41:46.258Z,3.09
2022-12-18T09:44:46.793Z,1.78
2022-12-18T09:47:31.335Z,0.97
2022-12-18T09:50:02.199Z,0.90
2022-12-18T09:52:40.655Z,3.21
2022-12-18T09:55:26.461Z,4.29
2022-12-18T09:57:59.642Z,2.94
2022-12-18T10:00:26.214Z,1.95
2022-12-18T10:03:00.798Z,1.30
2022-12-18T10:05:51.631Z,0.82
2022-12-18T10:08:35.804Z,1.66
2022-12-18T10:11:21.724Z,3.28
2022-12-18T10:14:15.343Z,2.84
2022-12-18T10:17:12.807Z,1.74
2022-12-18T10:19:52.324Z,0.99
2022-12-18T10:22:59.149Z,1.13
2022-12-18T10:25:35.594Z,3.01
2022-12-18T10:28:14.528Z,3.70
2022-12-18T10:30:42.547Z,2.67
2022-12-18T10:33:17.098Z,1.80
2022-12-18T10:35:43.996Z,1.15
2022-12-18T10:38:16.766Z,0.78
2022-12-18T10:41:02.032Z,1.91
2022-12-18T10:43:37.771Z,3.43
2022-12-18T10:46:10.356Z,2.79
2022-12-18T10:48:54.396Z,1.84
2022-12-18T10:51:27.209Z,1.15
2022-12-18T10:54:06.421Z,0.79
2022-12-18T10:56:37.061Z,2.06
2022-12-18T10:59:10.027Z,3.56
2022-12-18T11:01:49.923Z,3.04
2022-12-18T11:04:30.060Z,1.99
2022-12-18T11:07:06.013Z,1.26
2022-12-18T11:09:34.959Z,0.74
2022-12-18T11:12:10.674Z,1.04
2022-12-18T11:14:50.124Z,2.73
2022-12-18T11:17:30.108Z,3.46
2022-12-18T11:20:02.043Z,2.40
2022-12-18T11:22:34.251Z,1.56
2022-12-18T11:28:06.242Z,0.79
2022-12-18T11:30:37.064Z,2.31
2022-12-18T11:33:25.821Z,3.50
2022-12-18T11:35:54.935Z,2.60
2022-12-18T11:38:27.648Z,1.76
2022-12-18T11:41:16.116Z,1.15
2022-12-18T11:43:59.610Z,1.58
2022-12-18T11:46:47.624Z,3.32
2022-12-18T11:49:22.053Z,3.68
2022-12-18T11:51:54.801Z,2.57
2022-12-18T11:54:21.301Z,1.72
2022-12-18T11:57:09.853Z,1.14
2022-12-18T11:59:50.117Z,0.70
2022-12-18T12:02:35.152Z,1.63
2022-12-18T12:05:41.200Z,3.24
2022-12-18T12:08:41.689Z,2.60
2022-12-18T12:11:34.905Z,1.58
2022-12-18T12:14:26.873Z,0.85
2022-12-18T12:17:33.810Z,1.31
2022-12-18T12:20:38.301Z,3.15
2022-12-18T12:23:34.095Z,3.12
2022-12-18T12:26:10.637Z,1.98
2022-12-18T12:28:55.705Z,1.27
2022-12-18T12:31:44.745Z,0.75
2022-12-18T12:34:21.041Z,1.93
2022-12-18T12:37:16.020Z,2.70
2022-12-18T12:39:45.117Z,1.72
2022-12-18T12:42:48.389Z,0.98
2022-12-18T12:45:35.410Z,0.49
2022-12-18T12:48:03.886Z,1.82
2022-12-18T12:50:34.110Z,3.00
2022-12-18T12:53:02.190Z,2.30
2022-12-18T12:55:29.691Z,1.42
2022-12-18T12:58:26.794Z,0.79
2022-12-18T13:01:18.478Z,0.48
2022-12-18T13:04:03.876Z,2.18
2022-12-18T13:06:44.661Z,3.21
2022-12-18T13:09:11.494Z,2.19
2022-12-18T13:12:05.351Z,1.32
2022-12-18T13:14:36.453Z,0.73
2022-12-18T13:17:21.680Z,1.80
2022-12-18T13:20:11.002Z,2.82
2022-12-18T13:22:42.869Z,1.83
2022-12-18T13:25:36.861Z,1.05
2022-12-18T13:28:14.358Z,0.52
2022-12-18T13:30:41.641Z,1.71
2022-12-18T13:33:14.430Z,2.99
2022-12-18T13:35:48.448Z,2.32
2022-12-18T13:38:37.237Z,1.34
2022-12-18T13:41:19.201Z,0.61
2022-12-18T13:44:20.502Z,0.59
2022-12-18T13:46:49.131Z,2.57
2022-12-18T13:49:42.407Z,3.06
2022-12-18T13:52:21.726Z,1.90
2022-12-18T13:54:54.589Z,1.06
2022-12-18T13:57:38.629Z,0.48
2022-12-18T14:00:29.439Z,1.26
2022-12-18T14:02:58.308Z,2.88
2022-12-18T14:05:27.849Z,2.18
2022-12-18T14:07:55.046Z,1.26
2022-12-18T14:13:11.019Z,0.91
2022-12-18T14:15:44.663Z,2.59
2022-12-18T14:18:33.283Z,2.66
2022-12-18T14:21:02.704Z,1.56
2022-12-18T14:23:40.122Z,0.81
2022-12-18T14:26:30.363Z,0.30
2022-12-18T14:29:01.296Z,1.50
2022-12-18T14:31:30.697Z,2.78
2022-12-18T14:33:57.108Z,2.03
2022-12-18T14:36:26.979Z,1.02
2022-12-18T14:38:58.656Z,0.33
2022-12-18T14:41:26.174Z,0.26
2022-12-18T14:43:54.666Z,1.82
2022-12-18T14:46:33.430Z,2.87
2022-12-18T14:49:34.336Z,1.95
2022-12-18T14:52:04.208Z,0.84
2022-12-18T14:54:31.747Z,0.32
2022-12-18T14:57:20.403Z,1.31
2022-12-18T14:59:48.970Z,2.83
2022-12-18T15:02:29.150Z,2.15
2022-12-18T15:05:13.300Z,1.08
2022-12-18T15:07:43.494Z,0.31
2022-12-18T15:10:20.625Z,0.16
2022-12-18T15:13:08.250Z,1.71
2022-12-18T15:15:36.294Z,2.39
2022-12-18T15:18:08.910Z,1.33
2022-12-18T15:21:09.334Z,0.37
2022-12-18T15:23:52.595Z,0.24
2022-12-18T15:26:21.938Z,2.08
2022-12-18T15:28:50.273Z,2.53
2022-12-18T15:31:17.772Z,1.43
2022-12-18T15:33:52.531Z,0.51
2022-12-18T15:36:26.190Z,-0.06
2022-12-18T15:39:02.161Z,1.01
2022-12-18T15:41:36.720Z,2.51
2022-12-18T15:44:21.348Z,1.92
2022-12-18T15:46:47.794Z,0.72
2022-12-18T15:49:14.190Z,-0.02
2022-12-18T15:51:40.773Z,0.43
2022-12-18T15:54:13.401Z,2.10
2022-12-18T15:56:59.011Z,2.52
2022-12-18T15:59:25.401Z,1.30
2022-12-18T16:01:55.579Z,0.42
2022-12-18T16:04:23.904Z,0.29
2022-12-18T16:07:13.933Z,2.11
2022-12-18T16:09:38.974Z,2.62
2022-12-18T16:12:23.136Z,1.45
2022-12-18T16:14:50.756Z,0.45
2022-12-18T16:17:17.830Z,-0.14
2022-12-18T16:19:44.940Z,0.53
2022-12-18T16:22:22.218Z,2.14
2022-12-18T16:24:49.675Z,2.16
2022-12-18T16:27:16.509Z,1.06
2022-12-18T16:29:42.980Z,0.19
2022-12-18T16:32:14.284Z,-0.32
2022-12-18T16:34:42.305Z,0.77
2022-12-18T16:37:10.665Z,2.05
2022-12-18T16:39:38.323Z,1.37
2022-12-18T16:42:12.858Z,0.36
2022-12-18T16:44:39.293Z,-0.30
2022-12-18T16:47:05.625Z,0.53
2022-12-18T16:49:34.679Z,2.06
2022-12-18T16:52:01.237Z,1.86
2022-12-18T16:54:29.807Z,0.76
2022-12-18T16:56:56.791Z,-0.10
2022-12-18T16:59:23.198Z,-0.15
2022-12-18T17:01:50.483Z,1.29
2022-12-18T17:04:17.082Z,2.19
2022-12-18T17:06:45.394Z,1.28
2022-12-18T17:09:15.561Z,0.30
2022-12-18T17:11:42.446Z,-0.18
2022-12-18T17:14:14.330Z,0.99
2022-12-18T17:16:40.896Z,2.27
2022-12-18T17:19:09.762Z,1.56
2022-12-18T17:21:40.094Z,0.46
2022-12-18T17:24:07.561Z,-0.30
2022-12-18T17:26:34.066Z,-0.39
2022-12-18T17:29:00.636Z,1.14
2022-12-18T17:31:29.219Z,2.14
2022-12-18T17:33:56.528Z,1.26
2022-12-18T17:36:24.258Z,0.28
2022-12-18T17:38:52.940Z,-0.39
2022-12-18T17:41:19.946Z,0.36
2022-12-18T17:44:01.513Z,1.91
2022-12-18T17:46:30.421Z,2.24
2022-12-18T17:48:58.787Z,1.14
2022-12-18T17:51:26.339Z,0.23
2022-12-18T17:53:53.424Z,-0.39
2022-12-18T17:56:22.655Z,0.17
2022-12-18T17:58:52.552Z,1.84
2022-12-18T18:01:24.059Z,1.83
2022-12-18T18:03:53.589Z,0.77
2022-12-18T18:06:20.717Z,-0.04
2022-12-18T18:08:54.861Z,-0.36
2022-12-18T18:11:42.965Z,1.04
2022-12-18T18:14:19.254Z,2.01
2022-12-18T18:16:49.328Z,0.92
2022-12-18T18:19:19.799Z,-0.01
2022-12-18T18:21:48.689Z,-0.51
2022-12-18T18:24:19.722Z,0.69
2022-12-18T18:26:46.504Z,1.59
2022-12-18T18:29:19.767Z,0.65
2022-12-18T18:31:47.089Z,-0.26
2022-12-18T18:34:16.584Z,-0.64
2022-12-18T18:36:44.871Z,0.69
2022-12-18T18:39:12.478Z,1.03
2022-12-18T18:41:38.984Z,0.02
2022-12-18T18:44:06.340Z,-0.74
2022-12-18T18:46:33.132Z,0.13
2022-12-18T18:48:59.631Z,1.69
2022-12-18T18:51:30.055Z,1.31
2022-12-18T18:53:59.662Z,0.16
2022-12-18T18:56:56.495Z,-0.59
2022-12-18T18:59:14.838Z,0.43
2022-12-18T19:01:41.461Z,1.49
2022-12-18T19:04:08.002Z,0.62
2022-12-18T19:06:34.602Z,-0.33
2022-12-18T19:09:03.688Z,-0.77
2022-12-18T19:11:48.913Z,0.60
2022-12-18T19:14:16.471Z,1.55
2022-12-18T19:16:44.627Z,0.43
2022-12-18T19:19:12.293Z,-0.53
2022-12-18T19:21:38.743Z,-0.77
2022-12-18T19:24:05.881Z,0.78
2022-12-18T19:26:32.472Z,1.54
2022-12-18T19:29:07.505Z,0.47
2022-12-18T19:31:36.664Z,-0.52
2022-12-18T19:34:06.077Z,-0.98
2022-12-18T19:36:35.340Z,0.31
2022-12-18T19:39:11.040Z,1.61
2022-12-18T19:41:37.723Z,0.87
2022-12-18T19:44:07.875Z,-0.16
2022-12-18T19:46:35.802Z,-0.94
2022-12-18T19:49:02.762Z,-0.86
2022-12-18T19:51:30.853Z,0.78
2022-12-18T19:54:01.256Z,1.57
2022-12-18T19:56:33.942Z,0.47
2022-12-18T19:59:02.397Z,-0.51
2022-12-18T20:01:29.849Z,-1.10
2022-12-18T20:03:58.238Z,-0.17
2022-12-18T20:06:36.404Z,1.51
2022-12-18T20:09:06.425Z,1.31
2022-12-18T20:11:39.644Z,0.23
2022-12-18T20:14:13.474Z,-0.61
2022-12-18T20:16:40.894Z,-0.83
2022-12-18T20:19:08.257Z,0.71
2022-12-18T20:21:35.306Z,1.83
2022-12-18T20:24:01.786Z,0.96
2022-12-18T20:26:28.730Z,-0.03
2022-12-18T20:28:55.847Z,-0.78
2022-12-18T20:31:23.214Z,-0.90
2022-12-18T20:33:52.097Z,0.70
2022-12-18T20:36:22.616Z,1.82
2022-12-18T20:38:58.114Z,0.93
2022-12-18T20:41:31.607Z,-0.11
2022-12-18T20:44:07.467Z,-0.84
2022-12-18T20:46:42.200Z,-0.89
2022-12-18T20:49:09.335Z,0.78
2022-12-18T20:51:36.248Z,1.88
2022-12-18T20:54:03.377Z,0.96
2022-12-18T20:56:30.102Z,-0.06
2022-12-18T20:58:58.731Z,-0.76
2022-12-18T21:01:27.771Z,-1.26
2022-12-18T21:03:54.412Z,-0.58
2022-12-18T21:06:22.903Z,1.17
2022-12-18T21:08:49.911Z,0.87
2022-12-18T21:11:37.747Z,-0.23
2022-12-18T21:14:26.965Z,-0.95
2022-12-18T21:16:54.284Z,0.60
2022-12-18T21:19:24.320Z,1.39
2022-12-18T21:21:52.652Z,0.33
2022-12-18T21:24:19.962Z,-0.60
2022-12-18T21:26:48.450Z,-0.95
2022-12-18T21:29:22.695Z,0.52
2022-12-18T21:31:50.296Z,0.80
2022-12-18T21:34:22.986Z,-0.21
2022-12-18T21:36:49.314Z,-1.10
2022-12-18T21:39:16.278Z,-1.41
2022-12-18T21:42:01.946Z,-0.00
2022-12-18T21:44:29.021Z,1.44
2022-12-18T21:47:01.538Z,0.58
2022-12-18T21:49:32.898Z,-0.50
2022-12-18T21:52:00.460Z,-1.25
2022-12-18T21:54:28.848Z,-1.32
2022-12-18T21:57:04.017Z,0.36
2022-12-18T21:59:39.349Z,1.38
2022-12-18T22:02:15.711Z,0.35
2022-12-18T22:04:43.270Z,-0.68
2022-12-18T22:07:10.932Z,-1.29
2022-12-18T22:09:38.340Z,-0.31
2022-12-18T22:12:05.525Z,0.86
2022-12-18T22:14:32.148Z,-0.01
2022-12-18T22:16:58.558Z,-0.94
2022-12-18T22:19:25.197Z,-1.18
2022-12-18T22:21:52.119Z,0.40
2022-12-18T22:24:23.881Z,1.00
2022-12-18T22:26:53.656Z,-0.14
2022-12-18T22:29:43.862Z,-1.11
2022-12-18T22:32:23.412Z,-1.64
2022-12-18T22:35:05.780Z,0.07
2022-12-18T22:37:32.638Z,0.53
2022-12-18T22:39:58.987Z,-0.58
2022-12-18T22:42:29.171Z,-1.41
2022-12-18T22:44:55.549Z,-1.60
2022-12-18T22:47:24.299Z,-0.03
2022-12-18T22:49:54.330Z,0.82
2022-12-18T22:52:20.681Z,-0.19
2022-12-18T22:54:49.815Z,-1.13
2022-12-18T22:57:16.200Z,-1.54
2022-12-18T22:59:42.612Z,-0.14
2022-12-18T23:02:09.152Z,1.33
2022-12-18T23:04:36.838Z,0.70
2022-12-18T23:07:05.347Z,-0.41
2022-12-18T23:09:32.252Z,-1.19
2022-12-18T23:11:58.981Z,-1.25
2022-12-18T23:14:26.145Z,0.42
2022-12-18T23:16:53.037Z,0.58
2022-12-18T23:19:20.684Z,-0.47
2022-12-18T23:21:47.391Z,-1.27
2022-12-18T23:24:14.599Z,-1.43
2022-12-18T23:26:41.187Z,0.21
2022-12-18T23:29:07.557Z,0.75
2022-12-18T23:31:37.828Z,-0.28
2022-12-18T23:34:05.735Z,-1.14
2022-12-18T23:36:40.945Z,-1.69
2022-12-18T23:39:22.358Z,-0.59
2022-12-18T23:41:58.597Z,1.15
2022-12-18T23:44:25.322Z,0.58
2022-12-18T23:46:52.149Z,-0.47
2022-12-18T23:49:18.564Z,-1.20
2022-12-18T23:51:44.916Z,-1.60
2022-12-18T23:54:11.405Z,-0.38
2022-12-18T23:56:37.817Z,0.92
2022-12-18T23:59:04.344Z,0.17
